Terminal Aerodrome Forecast
Issued by NWS

Home | Current Version | Previous Version | Text Only | Print | Product List | Glossary On
Versions: 1 2 3 4 5 6 7 8 9 10 11 12 13 14 15 16 17 18 19 20 21 22 23 24
000
FTUS45 KGJT 222337
TAFASE
TAF
KASE 222337Z 2300/2324 13009KT P6SM VCTS BKN100CB
      TEMPO 2300/2303 VRB15G30KT -TSRA BKN060CB
     FM230300 15006KT P6SM VCSH BKN090
     FM230600 17005KT P6SM BKN150
     FM231700 33004KT P6SM BKN150=

USA.gov is the U.S. government's official web portal to all federal, state and local government web resources and services.